sensor_id;sensor_type;location;lat;lon;timestamp;temperature;humidity
9466;DHT22;4771;48.726;9.006;2023-02-15T00:01:06;2.50;99.90
9466;DHT22;4771;48.726;9.006;2023-02-15T00:03:34;2.60;99.90
9466;DHT22;4771;48.726;9.006;2023-02-15T00:06:01;2.50;99.90
9466;DHT22;4771;48.726;9.006;2023-02-15T00:08:27;2.50;99.90
9466;DHT22;4771;48.726;9.006;2023-02-15T00:11:03;2.50;99.90
9466;DHT22;4771;48.726;9.006;2023-02-15T00:13:30;2.60;99.90
9466;DHT22;4771;48.726;9.006;2023-02-15T00:16:00;2.60;99.90
9466;DHT22;4771;48.726;9.006;2023-02-15T00:18:29;2.60;99.90
9466;DHT22;4771;48.726;9.006;2023-02-15T00:20:56;2.60;99.90
9466;DHT22;4771;48.726;9.006;2023-02-15T00:23:23;2.60;99.90
9466;DHT22;4771;48.726;9.006;2023-02-15T00:25:49;2.50;99.90
9466;DHT22;4771;48.726;9.006;2023-02-15T00:28:16;2.50;99.90
9466;DHT22;4771;48.726;9.006;2023-02-15T00:30:43;2.50;99.90
9466;DHT22;4771;48.726;9.006;2023-02-15T00:33:10;2.50;99.90
9466;DHT22;4771;48.726;9.006;2023-02-15T00:35:38;2.50;99.90
9466;DHT22;4771;48.726;9.006;2023-02-15T00:38:05;2.50;99.90
9466;DHT22;4771;48.726;9.006;2023-02-15T00:40:32;2.40;99.90
9466;DHT22;4771;48.726;9.006;2023-02-15T00:42:59;2.40;99.90
9466;DHT22;4771;48.726;9.006;2023-02-15T00:45:26;2.40;99.90
9466;DHT22;4771;48.726;9.006;2023-02-15T00:47:53;2.50;99.90
9466;DHT22;4771;48.726;9.006;2023-02-15T00:50:19;2.50;99.90
9466;DHT22;4771;48.726;9.006;2023-02-15T00:52:48;2.40;99.90
9466;DHT22;4771;48.726;9.006;2023-02-15T00:55:15;2.40;99.90
9466;DHT22;4771;48.726;9.006;2023-02-15T00:57:41;2.40;99.90
9466;DHT22;4771;48.726;9.006;2023-02-15T01:00:09;2.40;99.90
9466;DHT22;4771;48.726;9.006;2023-02-15T01:02:36;2.40;99.90
9466;DHT22;4771;48.726;9.006;2023-02-15T01:05:04;2.40;99.90
9466;DHT22;4771;48.726;9.006;2023-02-15T01:07:31;2.40;99.90
9466;DHT22;4771;48.726;9.006;2023-02-15T01:09:59;2.40;99.90
9466;DHT22;4771;48.726;9.006;2023-02-15T01:12:26;2.40;99.90
9466;DHT22;4771;48.726;9.006;2023-02-15T01:14:53;2.40;99.90
9466;DHT22;4771;48.726;9.006;2023-02-15T01:17:20;2.30;99.90
9466;DHT22;4771;48.726;9.006;2023-02-15T01:19:47;2.40;99.90
9466;DHT22;4771;48.726;9.006;2023-02-15T01:22:13;2.40;99.90
9466;DHT22;4771;48.726;9.006;2023-02-15T01:24:40;2.40;99.90
9466;DHT22;4771;48.726;9.006;2023-02-15T01:27:09;2.30;99.90
9466;DHT22;4771;48.726;9.006;2023-02-15T01:29:36;2.30;99.90
9466;DHT22;4771;48.726;9.006;2023-02-15T01:32:03;2.10;99.90
9466;DHT22;4771;48.726;9.006;2023-02-15T01:34:30;2.30;99.90
9466;DHT22;4771;48.726;9.006;2023-02-15T01:36:57;2.30;99.90
9466;DHT22;4771;48.726;9.006;2023-02-15T01:39:24;2.30;99.90
9466;DHT22;4771;48.726;9.006;2023-02-15T01:41:51;2.30;99.90
9466;DHT22;4771;48.726;9.006;2023-02-15T01:44:50;2.30;99.90
9466;DHT22;4771;48.726;9.006;2023-02-15T01:47:22;2.30;99.90
9466;DHT22;4771;48.726;9.006;2023-02-15T01:49:54;2.30;99.90
9466;DHT22;4771;48.726;9.006;2023-02-15T01:52:22;2.30;99.90
9466;DHT22;4771;48.726;9.006;2023-02-15T01:54:50;2.30;99.90
9466;DHT22;4771;48.726;9.006;2023-02-15T01:57:21;2.30;99.90
9466;DHT22;4771;48.726;9.006;2023-02-15T01:59:53;2.20;99.90
9466;DHT22;4771;48.726;9.006;2023-02-15T02:02:22;2.20;99.90
9466;DHT22;4771;48.726;9.006;2023-02-15T02:04:51;2.20;99.90
9466;DHT22;4771;48.726;9.006;2023-02-15T02:07:22;2.20;99.90
9466;DHT22;4771;48.726;9.006;2023-02-15T02:09:50;2.20;99.90
9466;DHT22;4771;48.726;9.006;2023-02-15T02:12:18;2.30;99.90
9466;DHT22;4771;48.726;9.006;2023-02-15T02:14:47;2.10;99.90
9466;DHT22;4771;48.726;9.006;2023-02-15T02:17:18;2.10;99.90
9466;DHT22;4771;48.726;9.006;2023-02-15T02:20:16;2.10;99.90
9466;DHT22;4771;48.726;9.006;2023-02-15T02:23:13;2.00;99.90
9466;DHT22;4771;48.726;9.006;2023-02-15T02:26:00;2.00;99.90
9466;DHT22;4771;48.726;9.006;2023-02-15T02:28:57;2.00;99.90
9466;DHT22;4771;48.726;9.006;2023-02-15T02:31:43;2.00;99.90
9466;DHT22;4771;48.726;9.006;2023-02-15T02:34:18;2.00;99.90
9466;DHT22;4771;48.726;9.006;2023-02-15T02:36:52;2.00;99.90
9466;DHT22;4771;48.726;9.006;2023-02-15T02:39:28;2.00;99.90
9466;DHT22;4771;48.726;9.006;2023-02-15T02:42:01;2.00;99.90
9466;DHT22;4771;48.726;9.006;2023-02-15T02:44:36;2.00;99.90
9466;DHT22;4771;48.726;9.006;2023-02-15T02:47:09;2.00;99.90
9466;DHT22;4771;48.726;9.006;2023-02-15T02:49:41;2.00;99.90
9466;DHT22;4771;48.726;9.006;2023-02-15T02:52:37;2.00;99.90
9466;DHT22;4771;48.726;9.006;2023-02-15T02:55:08;1.90;99.90
9466;DHT22;4771;48.726;9.006;2023-02-15T02:57:37;1.80;99.90
9466;DHT22;4771;48.726;9.006;2023-02-15T03:00:07;1.80;99.90
9466;DHT22;4771;48.726;9.006;2023-02-15T03:02:39;1.80;99.90
9466;DHT22;4771;48.726;9.006;2023-02-15T03:05:13;1.80;99.90
9466;DHT22;4771;48.726;9.006;2023-02-15T03:07:42;1.80;99.90
9466;DHT22;4771;48.726;9.006;2023-02-15T03:10:10;2.40;99.90
9466;DHT22;4771;48.726;9.006;2023-02-15T03:12:39;1.80;99.90
9466;DHT22;4771;48.726;9.006;2023-02-15T03:15:09;1.80;99.90
9466;DHT22;4771;48.726;9.006;2023-02-15T03:17:39;1.80;99.90
9466;DHT22;4771;48.726;9.006;2023-02-15T03:20:13;1.80;99.90
9466;DHT22;4771;48.726;9.006;2023-02-15T03:22:44;1.80;99.90
9466;DHT22;4771;48.726;9.006;2023-02-15T03:25:16;1.80;99.90
9466;DHT22;4771;48.726;9.006;2023-02-15T03:27:46;1.80;99.90
9466;DHT22;4771;48.726;9.006;2023-02-15T03:30:15;1.70;99.90
9466;DHT22;4771;48.726;9.006;2023-02-15T03:32:45;1.70;99.90
9466;DHT22;4771;48.726;9.006;2023-02-15T03:35:15;1.60;99.90
9466;DHT22;4771;48.726;9.006;2023-02-15T03:37:46;1.70;99.90
9466;DHT22;4771;48.726;9.006;2023-02-15T03:40:19;1.60;99.90
9466;DHT22;4771;48.726;9.006;2023-02-15T03:43:12;1.60;99.90
9466;DHT22;4771;48.726;9.006;2023-02-15T03:45:44;1.70;99.90
9466;DHT22;4771;48.726;9.006;2023-02-15T03:48:22;1.60;99.90
9466;DHT22;4771;48.726;9.006;2023-02-15T03:50:53;1.60;99.90
9466;DHT22;4771;48.726;9.006;2023-02-15T03:53:40;1.70;99.90
9466;DHT22;4771;48.726;9.006;2023-02-15T03:56:07;1.60;99.90
9466;DHT22;4771;48.726;9.006;2023-02-15T03:58:34;1.60;99.90
9466;DHT22;4771;48.726;9.006;2023-02-15T04:01:36;1.60;99.90
9466;DHT22;4771;48.726;9.006;2023-02-15T04:04:33;1.60;99.90
9466;DHT22;4771;48.726;9.006;2023-02-15T04:07:02;1.60;99.90
9466;DHT22;4771;48.726;9.006;2023-02-15T04:09:29;1.50;99.90
9466;DHT22;4771;48.726;9.006;2023-02-15T04:12:14;1.40;99.90
9466;DHT22;4771;48.726;9.006;2023-02-15T04:14:40;1.40;99.90
9466;DHT22;4771;48.726;9.006;2023-02-15T04:17:25;1.40;99.90
9466;DHT22;4771;48.726;9.006;2023-02-15T04:19:52;1.40;99.90
9466;DHT22;4771;48.726;9.006;2023-02-15T04:22:38;1.50;99.90
9466;DHT22;4771;48.726;9.006;2023-02-15T04:25:22;1.50;99.90
9466;DHT22;4771;48.726;9.006;2023-02-15T04:27:50;1.50;99.90
9466;DHT22;4771;48.726;9.006;2023-02-15T04:30:20;1.50;99.90
9466;DHT22;4771;48.726;9.006;2023-02-15T04:32:47;1.50;99.90
9466;DHT22;4771;48.726;9.006;2023-02-15T04:35:14;1.50;99.90
9466;DHT22;4771;48.726;9.006;2023-02-15T04:37:43;1.50;99.90
9466;DHT22;4771;48.726;9.006;2023-02-15T04:40:12;1.30;99.90
9466;DHT22;4771;48.726;9.006;2023-02-15T04:42:39;1.30;99.90
9466;DHT22;4771;48.726;9.006;2023-02-15T04:45:07;1.00;99.90
9466;DHT22;4771;48.726;9.006;2023-02-15T04:47:34;1.00;99.90
9466;DHT22;4771;48.726;9.006;2023-02-15T04:50:01;0.90;99.90
9466;DHT22;4771;48.726;9.006;2023-02-15T04:52:28;0.90;99.90
9466;DHT22;4771;48.726;9.006;2023-02-15T04:54:57;1.00;99.90
9466;DHT22;4771;48.726;9.006;2023-02-15T04:57:24;1.00;99.90
9466;DHT22;4771;48.726;9.006;2023-02-15T04:59:50;1.30;99.90
9466;DHT22;4771;48.726;9.006;2023-02-15T05:02:17;1.20;99.90
9466;DHT22;4771;48.726;9.006;2023-02-15T05:04:44;1.20;99.90
9466;DHT22;4771;48.726;9.006;2023-02-15T05:07:11;1.20;99.90
9466;DHT22;4771;48.726;9.006;2023-02-15T05:09:38;1.20;99.90
9466;DHT22;4771;48.726;9.006;2023-02-15T05:12:06;1.10;99.90
9466;DHT22;4771;48.726;9.006;2023-02-15T05:14:33;1.10;99.90
9466;DHT22;4771;48.726;9.006;2023-02-15T05:17:00;1.20;99.90
9466;DHT22;4771;48.726;9.006;2023-02-15T05:19:28;1.10;99.90
9466;DHT22;4771;48.726;9.006;2023-02-15T05:21:55;1.00;99.90
9466;DHT22;4771;48.726;9.006;2023-02-15T05:24:22;1.00;99.90
9466;DHT22;4771;48.726;9.006;2023-02-15T05:27:10;1.00;99.90
9466;DHT22;4771;48.726;9.006;2023-02-15T05:29:55;1.10;99.90
9466;DHT22;4771;48.726;9.006;2023-02-15T05:32:22;1.20;99.90
9466;DHT22;4771;48.726;9.006;2023-02-15T05:34:49;1.20;99.90
9466;DHT22;4771;48.726;9.006;2023-02-15T05:37:15;1.20;99.90
9466;DHT22;4771;48.726;9.006;2023-02-15T05:39:42;1.20;99.90
9466;DHT22;4771;48.726;9.006;2023-02-15T05:42:10;1.20;99.90
9466;DHT22;4771;48.726;9.006;2023-02-15T05:44:37;0.80;99.90
9466;DHT22;4771;48.726;9.006;2023-02-15T05:47:04;1.10;99.90
9466;DHT22;4771;48.726;9.006;2023-02-15T05:49:32;1.20;99.90
9466;DHT22;4771;48.726;9.006;2023-02-15T05:51:59;1.40;99.90
9466;DHT22;4771;48.726;9.006;2023-02-15T05:54:26;1.20;99.90
9466;DHT22;4771;48.726;9.006;2023-02-15T05:56:54;1.20;99.90
9466;DHT22;4771;48.726;9.006;2023-02-15T05:59:22;1.00;99.90
9466;DHT22;4771;48.726;9.006;2023-02-15T06:01:49;0.90;99.90
9466;DHT22;4771;48.726;9.006;2023-02-15T06:04:16;0.80;99.90
9466;DHT22;4771;48.726;9.006;2023-02-15T06:06:43;0.90;99.90
9466;DHT22;4771;48.726;9.006;2023-02-15T06:09:10;0.90;99.90
9466;DHT22;4771;48.726;9.006;2023-02-15T06:11:37;0.80;99.90
9466;DHT22;4771;48.726;9.006;2023-02-15T06:14:04;1.00;99.90
9466;DHT22;4771;48.726;9.006;2023-02-15T06:16:32;1.00;99.90
9466;DHT22;4771;48.726;9.006;2023-02-15T06:18:59;1.00;99.90
9466;DHT22;4771;48.726;9.006;2023-02-15T06:21:27;1.00;99.90
9466;DHT22;4771;48.726;9.006;2023-02-15T06:23:54;1.10;99.90
9466;DHT22;4771;48.726;9.006;2023-02-15T06:26:21;1.00;99.90
9466;DHT22;4771;48.726;9.006;2023-02-15T06:28:48;1.10;99.90
9466;DHT22;4771;48.726;9.006;2023-02-15T06:31:14;1.00;99.90
9466;DHT22;4771;48.726;9.006;2023-02-15T06:33:43;1.00;99.90
9466;DHT22;4771;48.726;9.006;2023-02-15T06:36:10;0.90;99.90
9466;DHT22;4771;48.726;9.006;2023-02-15T06:38:38;0.80;99.90
9466;DHT22;4771;48.726;9.006;2023-02-15T06:41:04;0.70;99.90
9466;DHT22;4771;48.726;9.006;2023-02-15T06:43:31;0.70;99.90
9466;DHT22;4771;48.726;9.006;2023-02-15T06:45:59;0.70;99.90
9466;DHT22;4771;48.726;9.006;2023-02-15T06:48:26;0.80;99.90
9466;DHT22;4771;48.726;9.006;2023-02-15T06:50:55;0.90;99.90
9466;DHT22;4771;48.726;9.006;2023-02-15T06:53:21;0.90;99.90
9466;DHT22;4771;48.726;9.006;2023-02-15T06:55:48;0.90;99.90
9466;DHT22;4771;48.726;9.006;2023-02-15T06:58:15;0.90;99.90
9466;DHT22;4771;48.726;9.006;2023-02-15T07:00:42;1.10;99.90
9466;DHT22;4771;48.726;9.006;2023-02-15T07:03:09;0.90;99.90
9466;DHT22;4771;48.726;9.006;2023-02-15T07:05:36;0.90;99.90
9466;DHT22;4771;48.726;9.006;2023-02-15T07:08:04;0.90;99.90
9466;DHT22;4771;48.726;9.006;2023-02-15T07:10:31;0.80;99.90
9466;DHT22;4771;48.726;9.006;2023-02-15T07:12:58;0.90;99.90
9466;DHT22;4771;48.726;9.006;2023-02-15T07:15:24;0.90;99.90
9466;DHT22;4771;48.726;9.006;2023-02-15T07:17:51;0.90;99.90
9466;DHT22;4771;48.726;9.006;2023-02-15T07:20:20;1.00;99.90
9466;DHT22;4771;48.726;9.006;2023-02-15T07:22:47;1.00;99.90
9466;DHT22;4771;48.726;9.006;2023-02-15T07:25:16;1.00;99.90
9466;DHT22;4771;48.726;9.006;2023-02-15T07:27:43;1.10;99.90
9466;DHT22;4771;48.726;9.006;2023-02-15T07:30:12;1.20;99.90
9466;DHT22;4771;48.726;9.006;2023-02-15T07:32:39;1.20;99.90
9466;DHT22;4771;48.726;9.006;2023-02-15T07:35:26;1.30;99.90
9466;DHT22;4771;48.726;9.006;2023-02-15T07:37:54;1.30;99.90
9466;DHT22;4771;48.726;9.006;2023-02-15T07:40:22;1.70;99.90
9466;DHT22;4771;48.726;9.006;2023-02-15T07:42:50;1.60;99.90
9466;DHT22;4771;48.726;9.006;2023-02-15T07:45:18;1.50;99.90
9466;DHT22;4771;48.726;9.006;2023-02-15T07:47:45;1.60;99.90
9466;DHT22;4771;48.726;9.006;2023-02-15T07:50:12;1.70;99.90
9466;DHT22;4771;48.726;9.006;2023-02-15T07:52:39;1.80;99.90
9466;DHT22;4771;48.726;9.006;2023-02-15T07:55:06;2.30;99.90
9466;DHT22;4771;48.726;9.006;2023-02-15T07:57:42;1.80;99.90
9466;DHT22;4771;48.726;9.006;2023-02-15T08:00:10;1.90;99.90
9466;DHT22;4771;48.726;9.006;2023-02-15T08:02:38;1.90;99.90
9466;DHT22;4771;48.726;9.006;2023-02-15T08:05:05;2.00;99.90
9466;DHT22;4771;48.726;9.006;2023-02-15T08:07:32;2.10;99.90
9466;DHT22;4771;48.726;9.006;2023-02-15T08:09:59;2.20;99.90
9466;DHT22;4771;48.726;9.006;2023-02-15T08:12:26;2.20;99.90
9466;DHT22;4771;48.726;9.006;2023-02-15T08:14:54;2.40;99.90
9466;DHT22;4771;48.726;9.006;2023-02-15T08:17:21;2.30;99.90
9466;DHT22;4771;48.726;9.006;2023-02-15T08:19:49;2.30;99.90
9466;DHT22;4771;48.726;9.006;2023-02-15T08:22:15;2.50;99.90
9466;DHT22;4771;48.726;9.006;2023-02-15T08:24:42;2.60;99.90
9466;DHT22;4771;48.726;9.006;2023-02-15T08:27:10;2.70;99.90
9466;DHT22;4771;48.726;9.006;2023-02-15T08:29:38;2.80;99.90
9466;DHT22;4771;48.726;9.006;2023-02-15T08:32:09;2.90;99.90
9466;DHT22;4771;48.726;9.006;2023-02-15T08:34:38;3.10;99.90
9466;DHT22;4771;48.726;9.006;2023-02-15T08:37:06;3.20;99.90
9466;DHT22;4771;48.726;9.006;2023-02-15T08:39:33;3.50;99.90
9466;DHT22;4771;48.726;9.006;2023-02-15T08:42:00;3.50;99.90
9466;DHT22;4771;48.726;9.006;2023-02-15T08:44:27;3.70;99.90
9466;DHT22;4771;48.726;9.006;2023-02-15T08:46:54;3.80;99.90
9466;DHT22;4771;48.726;9.006;2023-02-15T08:49:24;4.10;99.90
9466;DHT22;4771;48.726;9.006;2023-02-15T08:51:51;4.30;99.90
9466;DHT22;4771;48.726;9.006;2023-02-15T08:54:19;4.50;99.90
9466;DHT22;4771;48.726;9.006;2023-02-15T08:56:47;4.90;99.90
9466;DHT22;4771;48.726;9.006;2023-02-15T08:59:15;5.20;99.90
9466;DHT22;4771;48.726;9.006;2023-02-15T09:01:43;5.60;99.90
9466;DHT22;4771;48.726;9.006;2023-02-15T09:04:10;6.00;99.90
9466;DHT22;4771;48.726;9.006;2023-02-15T09:06:40;6.30;99.90
9466;DHT22;4771;48.726;9.006;2023-02-15T09:09:07;6.60;99.90
9466;DHT22;4771;48.726;9.006;2023-02-15T09:11:36;6.80;99.90
9466;DHT22;4771;48.726;9.006;2023-02-15T09:14:05;6.90;99.90
9466;DHT22;4771;48.726;9.006;2023-02-15T09:16:35;7.00;99.90
9466;DHT22;4771;48.726;9.006;2023-02-15T09:19:03;7.10;99.90
9466;DHT22;4771;48.726;9.006;2023-02-15T09:21:31;7.10;99.90
9466;DHT22;4771;48.726;9.006;2023-02-15T09:24:01;7.70;99.90
9466;DHT22;4771;48.726;9.006;2023-02-15T09:26:29;7.20;99.90
9466;DHT22;4771;48.726;9.006;2023-02-15T09:28:58;7.30;99.90
9466;DHT22;4771;48.726;9.006;2023-02-15T09:31:27;7.30;99.90
9466;DHT22;4771;48.726;9.006;2023-02-15T09:33:55;7.30;99.90
9466;DHT22;4771;48.726;9.006;2023-02-15T09:36:23;7.40;99.90
9466;DHT22;4771;48.726;9.006;2023-02-15T09:38:55;7.50;99.90
9466;DHT22;4771;48.726;9.006;2023-02-15T09:41:46;8.20;99.90
9466;DHT22;4771;48.726;9.006;2023-02-15T09:44:23;7.80;99.90
9466;DHT22;4771;48.726;9.006;2023-02-15T09:47:18;7.90;99.90
9466;DHT22;4771;48.726;9.006;2023-02-15T09:49:52;8.00;99.90
9466;DHT22;4771;48.726;9.006;2023-02-15T09:52:44;8.20;99.90
9466;DHT22;4771;48.726;9.006;2023-02-15T09:55:24;8.20;99.90
9466;DHT22;4771;48.726;9.006;2023-02-15T09:58:04;8.50;99.90
9466;DHT22;4771;48.726;9.006;2023-02-15T10:00:40;8.60;99.70
9466;DHT22;4771;48.726;9.006;2023-02-15T10:03:22;8.80;99.90
9466;DHT22;4771;48.726;9.006;2023-02-15T10:06:03;9.00;97.70
9466;DHT22;4771;48.726;9.006;2023-02-15T10:08:49;9.10;98.20
9466;DHT22;4771;48.726;9.006;2023-02-15T10:11:21;9.20;97.80
9466;DHT22;4771;48.726;9.006;2023-02-15T10:17:23;9.50;95.90
9466;DHT22;4771;48.726;9.006;2023-02-15T10:20:00;9.60;94.30
9466;DHT22;4771;48.726;9.006;2023-02-15T10:22:37;9.90;93.90
9466;DHT22;4771;48.726;9.006;2023-02-15T10:25:27;10.10;92.90
9466;DHT22;4771;48.726;9.006;2023-02-15T10:28:01;10.20;91.80
9466;DHT22;4771;48.726;9.006;2023-02-15T10:30:36;10.40;90.80
9466;DHT22;4771;48.726;9.006;2023-02-15T10:33:14;10.50;91.20
9466;DHT22;4771;48.726;9.006;2023-02-15T10:35:52;10.60;88.30
9466;DHT22;4771;48.726;9.006;2023-02-15T10:38:26;10.70;82.60
9466;DHT22;4771;48.726;9.006;2023-02-15T10:41:04;10.80;84.80
9466;DHT22;4771;48.726;9.006;2023-02-15T10:43:45;10.90;84.10
9466;DHT22;4771;48.726;9.006;2023-02-15T10:46:33;11.10;82.10
9466;DHT22;4771;48.726;9.006;2023-02-15T10:49:44;11.30;72.30
9466;DHT22;4771;48.726;9.006;2023-02-15T10:52:25;11.50;74.60
9466;DHT22;4771;48.726;9.006;2023-02-15T10:55:02;11.60;66.80
9466;DHT22;4771;48.726;9.006;2023-02-15T10:57:41;11.70;68.10
9466;DHT22;4771;48.726;9.006;2023-02-15T11:00:12;11.90;65.80
9466;DHT22;4771;48.726;9.006;2023-02-15T11:02:53;12.00;60.30
9466;DHT22;4771;48.726;9.006;2023-02-15T11:05:44;12.20;58.60
9466;DHT22;4771;48.726;9.006;2023-02-15T11:08:15;12.30;57.10
9466;DHT22;4771;48.726;9.006;2023-02-15T11:10:45;12.40;56.90
9466;DHT22;4771;48.726;9.006;2023-02-15T11:13:17;12.50;55.90
9466;DHT22;4771;48.726;9.006;2023-02-15T11:15:47;12.70;55.40
9466;DHT22;4771;48.726;9.006;2023-02-15T11:18:21;12.80;56.10
9466;DHT22;4771;48.726;9.006;2023-02-15T11:20:54;12.90;53.50
9466;DHT22;4771;48.726;9.006;2023-02-15T11:23:24;13.00;56.30
9466;DHT22;4771;48.726;9.006;2023-02-15T11:25:56;13.10;54.70
9466;DHT22;4771;48.726;9.006;2023-02-15T11:28:28;13.20;55.50
9466;DHT22;4771;48.726;9.006;2023-02-15T11:31:00;13.20;54.00
9466;DHT22;4771;48.726;9.006;2023-02-15T11:33:31;13.30;54.80
9466;DHT22;4771;48.726;9.006;2023-02-15T11:36:06;13.60;52.30
9466;DHT22;4771;48.726;9.006;2023-02-15T11:38:36;13.70;51.30
9466;DHT22;4771;48.726;9.006;2023-02-15T11:41:08;13.80;52.70
9466;DHT22;4771;48.726;9.006;2023-02-15T11:43:39;13.90;50.00
9466;DHT22;4771;48.726;9.006;2023-02-15T11:46:11;14.00;50.30
9466;DHT22;4771;48.726;9.006;2023-02-15T11:48:40;14.10;47.80
9466;DHT22;4771;48.726;9.006;2023-02-15T11:51:12;14.30;49.40
9466;DHT22;4771;48.726;9.006;2023-02-15T11:53:41;14.40;49.80
9466;DHT22;4771;48.726;9.006;2023-02-15T11:56:14;14.50;50.20
9466;DHT22;4771;48.726;9.006;2023-02-15T11:58:44;14.60;48.70
9466;DHT22;4771;48.726;9.006;2023-02-15T12:01:16;14.70;47.60
9466;DHT22;4771;48.726;9.006;2023-02-15T12:03:46;14.90;47.00
9466;DHT22;4771;48.726;9.006;2023-02-15T12:06:23;14.90;47.70
9466;DHT22;4771;48.726;9.006;2023-02-15T12:08:59;15.10;43.30
9466;DHT22;4771;48.726;9.006;2023-02-15T12:11:33;15.20;40.40
9466;DHT22;4771;48.726;9.006;2023-02-15T12:14:03;15.40;40.00
9466;DHT22;4771;48.726;9.006;2023-02-15T12:16:40;15.50;39.00
9466;DHT22;4771;48.726;9.006;2023-02-15T12:19:24;15.70;38.70
9466;DHT22;4771;48.726;9.006;2023-02-15T12:21:56;15.70;38.10
9466;DHT22;4771;48.726;9.006;2023-02-15T12:24:26;15.70;40.60
9466;DHT22;4771;48.726;9.006;2023-02-15T12:26:59;15.80;40.20
9466;DHT22;4771;48.726;9.006;2023-02-15T12:29:29;15.90;39.60
9466;DHT22;4771;48.726;9.006;2023-02-15T12:31:57;16.00;40.10
9466;DHT22;4771;48.726;9.006;2023-02-15T12:34:27;16.00;40.70
9466;DHT22;4771;48.726;9.006;2023-02-15T12:37:01;16.10;36.60
9466;DHT22;4771;48.726;9.006;2023-02-15T12:39:30;16.10;39.30
9466;DHT22;4771;48.726;9.006;2023-02-15T12:42:03;16.20;38.50
9466;DHT22;4771;48.726;9.006;2023-02-15T12:44:32;16.10;38.20
9466;DHT22;4771;48.726;9.006;2023-02-15T12:47:01;16.00;38.50
9466;DHT22;4771;48.726;9.006;2023-02-15T12:49:30;15.90;35.20
9466;DHT22;4771;48.726;9.006;2023-02-15T12:52:00;15.90;30.20
9466;DHT22;4771;48.726;9.006;2023-02-15T12:54:36;15.80;31.40
9466;DHT22;4771;48.726;9.006;2023-02-15T12:57:17;15.70;34.90
9466;DHT22;4771;48.726;9.006;2023-02-15T12:59:52;15.70;35.60
9466;DHT22;4771;48.726;9.006;2023-02-15T13:02:28;15.80;33.90
9466;DHT22;4771;48.726;9.006;2023-02-15T13:04:57;15.70;32.80
9466;DHT22;4771;48.726;9.006;2023-02-15T13:07:32;15.70;32.10
9466;DHT22;4771;48.726;9.006;2023-02-15T13:09:59;15.70;32.30
9466;DHT22;4771;48.726;9.006;2023-02-15T13:12:28;15.60;30.90
9466;DHT22;4771;48.726;9.006;2023-02-15T13:14:58;15.50;30.90
9466;DHT22;4771;48.726;9.006;2023-02-15T13:17:28;15.40;29.60
9466;DHT22;4771;48.726;9.006;2023-02-15T13:20:00;15.30;31.30
9466;DHT22;4771;48.726;9.006;2023-02-15T13:22:35;15.30;30.00
9466;DHT22;4771;48.726;9.006;2023-02-15T13:25:11;15.20;30.30
9466;DHT22;4771;48.726;9.006;2023-02-15T13:27:41;15.10;31.70
9466;DHT22;4771;48.726;9.006;2023-02-15T13:30:20;15.10;30.00
9466;DHT22;4771;48.726;9.006;2023-02-15T13:32:49;15.10;30.30
9466;DHT22;4771;48.726;9.006;2023-02-15T13:35:18;15.10;28.80
9466;DHT22;4771;48.726;9.006;2023-02-15T13:38:09;15.10;31.00
9466;DHT22;4771;48.726;9.006;2023-02-15T13:40:45;14.90;28.70
9466;DHT22;4771;48.726;9.006;2023-02-15T13:43:23;14.90;28.30
9466;DHT22;4771;48.726;9.006;2023-02-15T13:46:01;14.90;30.00
9466;DHT22;4771;48.726;9.006;2023-02-15T13:48:39;14.80;31.90
9466;DHT22;4771;48.726;9.006;2023-02-15T13:51:16;14.70;31.60
9466;DHT22;4771;48.726;9.006;2023-02-15T13:54:04;14.80;30.30
9466;DHT22;4771;48.726;9.006;2023-02-15T13:56:44;14.70;28.90
9466;DHT22;4771;48.726;9.006;2023-02-15T13:59:37;14.60;30.20
9466;DHT22;4771;48.726;9.006;2023-02-15T14:02:35;14.60;30.90
9466;DHT22;4771;48.726;9.006;2023-02-15T14:05:21;14.60;32.50
9466;DHT22;4771;48.726;9.006;2023-02-15T14:08:01;14.60;29.50
9466;DHT22;4771;48.726;9.006;2023-02-15T14:10:44;14.60;29.50
9466;DHT22;4771;48.726;9.006;2023-02-15T14:13:55;14.60;25.60
9466;DHT22;4771;48.726;9.006;2023-02-15T14:16:32;14.50;27.90
9466;DHT22;4771;48.726;9.006;2023-02-15T14:19:09;14.60;29.20
9466;DHT22;4771;48.726;9.006;2023-02-15T14:21:43;14.50;29.40
9466;DHT22;4771;48.726;9.006;2023-02-15T14:24:27;14.50;29.50
9466;DHT22;4771;48.726;9.006;2023-02-15T14:27:07;14.50;30.60
9466;DHT22;4771;48.726;9.006;2023-02-15T14:29:49;14.40;29.60
9466;DHT22;4771;48.726;9.006;2023-02-15T14:32:23;14.50;32.90
9466;DHT22;4771;48.726;9.006;2023-02-15T14:34:53;14.50;34.40
9466;DHT22;4771;48.726;9.006;2023-02-15T14:37:28;14.60;35.60
9466;DHT22;4771;48.726;9.006;2023-02-15T14:40:00;14.60;36.30
9466;DHT22;4771;48.726;9.006;2023-02-15T14:42:53;14.50;37.10
9466;DHT22;4771;48.726;9.006;2023-02-15T14:45:27;14.50;37.20
9466;DHT22;4771;48.726;9.006;2023-02-15T14:48:03;14.50;36.60
9466;DHT22;4771;48.726;9.006;2023-02-15T14:50:43;14.40;37.80
9466;DHT22;4771;48.726;9.006;2023-02-15T14:53:22;14.30;36.90
9466;DHT22;4771;48.726;9.006;2023-02-15T14:56:06;14.20;35.10
9466;DHT22;4771;48.726;9.006;2023-02-15T14:58:35;14.10;36.60
9466;DHT22;4771;48.726;9.006;2023-02-15T15:01:05;14.00;38.00
9466;DHT22;4771;48.726;9.006;2023-02-15T15:03:34;14.00;38.00
9466;DHT22;4771;48.726;9.006;2023-02-15T15:06:03;13.90;38.60
9466;DHT22;4771;48.726;9.006;2023-02-15T15:08:34;13.80;38.40
9466;DHT22;4771;48.726;9.006;2023-02-15T15:11:39;13.70;37.10
9466;DHT22;4771;48.726;9.006;2023-02-15T15:14:09;13.60;37.30
9466;DHT22;4771;48.726;9.006;2023-02-15T15:16:50;13.40;37.80
9466;DHT22;4771;48.726;9.006;2023-02-15T15:22:31;13.30;38.70
9466;DHT22;4771;48.726;9.006;2023-02-15T15:24:59;13.10;38.80
9466;DHT22;4771;48.726;9.006;2023-02-15T15:27:41;13.00;39.10
9466;DHT22;4771;48.726;9.006;2023-02-15T15:33:42;12.90;40.90
9466;DHT22;4771;48.726;9.006;2023-02-15T15:36:47;12.80;41.60
9466;DHT22;4771;48.726;9.006;2023-02-15T15:42:41;12.40;40.70
9466;DHT22;4771;48.726;9.006;2023-02-15T15:45:30;12.40;41.00
9466;DHT22;4771;48.726;9.006;2023-02-15T15:48:19;12.30;42.40
9466;DHT22;4771;48.726;9.006;2023-02-15T15:50:51;12.30;43.20
9466;DHT22;4771;48.726;9.006;2023-02-15T15:53:22;12.20;43.60
9466;DHT22;4771;48.726;9.006;2023-02-15T15:55:52;12.10;44.00
9466;DHT22;4771;48.726;9.006;2023-02-15T15:58:22;12.00;44.20
9466;DHT22;4771;48.726;9.006;2023-02-15T16:00:51;12.00;45.10
9466;DHT22;4771;48.726;9.006;2023-02-15T16:03:22;11.90;44.80
9466;DHT22;4771;48.726;9.006;2023-02-15T16:05:50;11.80;45.00
9466;DHT22;4771;48.726;9.006;2023-02-15T16:08:27;11.70;44.70
9466;DHT22;4771;48.726;9.006;2023-02-15T16:10:55;11.70;45.40
9466;DHT22;4771;48.726;9.006;2023-02-15T16:13:22;11.60;44.90
9466;DHT22;4771;48.726;9.006;2023-02-15T16:15:51;11.50;45.80
9466;DHT22;4771;48.726;9.006;2023-02-15T16:18:20;11.40;46.20
9466;DHT22;4771;48.726;9.006;2023-02-15T16:20:52;11.40;46.50
9466;DHT22;4771;48.726;9.006;2023-02-15T16:23:52;11.30;47.20
9466;DHT22;4771;48.726;9.006;2023-02-15T16:29:27;11.10;48.70
9466;DHT22;4771;48.726;9.006;2023-02-15T16:31:59;11.00;48.40
9466;DHT22;4771;48.726;9.006;2023-02-15T16:34:27;10.90;49.50
9466;DHT22;4771;48.726;9.006;2023-02-15T16:40:03;10.80;50.80
9466;DHT22;4771;48.726;9.006;2023-02-15T16:42:30;10.50;52.00
9466;DHT22;4771;48.726;9.006;2023-02-15T16:45:08;10.40;53.00
9466;DHT22;4771;48.726;9.006;2023-02-15T16:47:41;10.30;53.50
9466;DHT22;4771;48.726;9.006;2023-02-15T16:50:17;10.20;53.50
9466;DHT22;4771;48.726;9.006;2023-02-15T16:52:45;10.00;53.10
9466;DHT22;4771;48.726;9.006;2023-02-15T16:55:20;9.90;53.50
9466;DHT22;4771;48.726;9.006;2023-02-15T16:57:49;9.80;53.60
9466;DHT22;4771;48.726;9.006;2023-02-15T17:00:17;9.70;54.00
9466;DHT22;4771;48.726;9.006;2023-02-15T17:02:53;9.70;54.50
9466;DHT22;4771;48.726;9.006;2023-02-15T17:05:22;9.50;55.50